sensor_id;sensor_type;location;lat;lon;timestamp;P1;durP1;ratioP1;P2;durP2;ratioP2
22287;SDS011;11312;51.464;6.968;2023-04-15T00:00:36;4.63;;;1.90;;
22287;SDS011;11312;51.464;6.968;2023-04-15T00:03:02;3.90;;;1.83;;
22287;SDS011;11312;51.464;6.968;2023-04-15T00:05:30;3.80;;;1.83;;
22287;SDS011;11312;51.464;6.968;2023-04-15T00:07:59;3.58;;;1.73;;
22287;SDS011;11312;51.464;6.968;2023-04-15T00:10:26;5.40;;;2.30;;
22287;SDS011;11312;51.464;6.968;2023-04-15T00:12:56;6.72;;;3.05;;
22287;SDS011;11312;51.464;6.968;2023-04-15T00:15:26;4.93;;;2.55;;
22287;SDS011;11312;51.464;6.968;2023-04-15T00:17:52;5.22;;;2.13;;
22287;SDS011;11312;51.464;6.968;2023-04-15T00:20:18;6.20;;;2.55;;
22287;SDS011;11312;51.464;6.968;2023-04-15T00:22:44;5.47;;;2.22;;
22287;SDS011;11312;51.464;6.968;2023-04-15T00:25:10;7.20;;;2.45;;
22287;SDS011;11312;51.464;6.968;2023-04-15T00:27:36;3.65;;;1.75;;
22287;SDS011;11312;51.464;6.968;2023-04-15T00:30:02;6.45;;;2.55;;
22287;SDS011;11312;51.464;6.968;2023-04-15T00:32:29;4.78;;;2.15;;
22287;SDS011;11312;51.464;6.968;2023-04-15T00:34:55;4.30;;;2.17;;
22287;SDS011;11312;51.464;6.968;2023-04-15T00:37:21;6.72;;;2.58;;
22287;SDS011;11312;51.464;6.968;2023-04-15T00:42:16;4.65;;;1.95;;
22287;SDS011;11312;51.464;6.968;2023-04-15T00:44:43;6.78;;;2.58;;
22287;SDS011;11312;51.464;6.968;2023-04-15T00:47:08;6.10;;;2.63;;
22287;SDS011;11312;51.464;6.968;2023-04-15T00:49:35;4.50;;;1.90;;
22287;SDS011;11312;51.464;6.968;2023-04-15T00:52:02;5.35;;;2.10;;
22287;SDS011;11312;51.464;6.968;2023-04-15T00:54:28;4.85;;;2.20;;
22287;SDS011;11312;51.464;6.968;2023-04-15T00:56:53;5.38;;;2.42;;
22287;SDS011;11312;51.464;6.968;2023-04-15T00:59:20;5.47;;;2.20;;
22287;SDS011;11312;51.464;6.968;2023-04-15T01:01:47;8.55;;;3.75;;
22287;SDS011;11312;51.464;6.968;2023-04-15T01:04:13;5.60;;;2.17;;
22287;SDS011;11312;51.464;6.968;2023-04-15T01:06:42;5.30;;;2.25;;
22287;SDS011;11312;51.464;6.968;2023-04-15T01:09:10;7.30;;;2.78;;
22287;SDS011;11312;51.464;6.968;2023-04-15T01:11:40;6.38;;;2.78;;
22287;SDS011;11312;51.464;6.968;2023-04-15T01:14:05;4.47;;;2.03;;
22287;SDS011;11312;51.464;6.968;2023-04-15T01:16:32;6.38;;;2.42;;
22287;SDS011;11312;51.464;6.968;2023-04-15T01:18:58;5.18;;;2.42;;
22287;SDS011;11312;51.464;6.968;2023-04-15T01:21:24;5.97;;;2.40;;
22287;SDS011;11312;51.464;6.968;2023-04-15T01:23:50;6.10;;;2.40;;
22287;SDS011;11312;51.464;6.968;2023-04-15T01:26:18;9.50;;;2.95;;
22287;SDS011;11312;51.464;6.968;2023-04-15T01:28:44;5.15;;;2.00;;
22287;SDS011;11312;51.464;6.968;2023-04-15T01:31:10;8.25;;;2.90;;
22287;SDS011;11312;51.464;6.968;2023-04-15T01:33:37;6.47;;;2.53;;
22287;SDS011;11312;51.464;6.968;2023-04-15T01:36:05;8.73;;;3.10;;
22287;SDS011;11312;51.464;6.968;2023-04-15T01:38:32;5.18;;;2.22;;
22287;SDS011;11312;51.464;6.968;2023-04-15T01:40:59;5.68;;;2.30;;
22287;SDS011;11312;51.464;6.968;2023-04-15T01:43:25;6.70;;;2.70;;
22287;SDS011;11312;51.464;6.968;2023-04-15T01:45:52;6.80;;;3.03;;
22287;SDS011;11312;51.464;6.968;2023-04-15T01:48:18;5.38;;;2.08;;
22287;SDS011;11312;51.464;6.968;2023-04-15T01:50:43;5.30;;;2.38;;
22287;SDS011;11312;51.464;6.968;2023-04-15T01:53:09;6.07;;;2.22;;
22287;SDS011;11312;51.464;6.968;2023-04-15T01:55:35;6.10;;;2.55;;
22287;SDS011;11312;51.464;6.968;2023-04-15T01:58:01;6.05;;;2.45;;
22287;SDS011;11312;51.464;6.968;2023-04-15T02:00:33;5.65;;;2.28;;
22287;SDS011;11312;51.464;6.968;2023-04-15T02:02:59;7.28;;;2.85;;
22287;SDS011;11312;51.464;6.968;2023-04-15T02:05:25;9.10;;;2.92;;
22287;SDS011;11312;51.464;6.968;2023-04-15T02:07:53;5.10;;;2.10;;
22287;SDS011;11312;51.464;6.968;2023-04-15T02:10:22;4.22;;;1.90;;
22287;SDS011;11312;51.464;6.968;2023-04-15T02:12:49;5.78;;;2.33;;
22287;SDS011;11312;51.464;6.968;2023-04-15T02:15:14;5.95;;;2.42;;
22287;SDS011;11312;51.464;6.968;2023-04-15T02:17:40;6.43;;;2.88;;
22287;SDS011;11312;51.464;6.968;2023-04-15T02:20:17;5.00;;;2.30;;
22287;SDS011;11312;51.464;6.968;2023-04-15T02:22:45;5.28;;;2.20;;
22287;SDS011;11312;51.464;6.968;2023-04-15T02:25:12;6.93;;;2.53;;
22287;SDS011;11312;51.464;6.968;2023-04-15T02:27:38;4.25;;;1.98;;
22287;SDS011;11312;51.464;6.968;2023-04-15T02:30:04;5.93;;;2.47;;
22287;SDS011;11312;51.464;6.968;2023-04-15T02:35:02;5.65;;;2.15;;
22287;SDS011;11312;51.464;6.968;2023-04-15T02:37:29;5.75;;;2.28;;
22287;SDS011;11312;51.464;6.968;2023-04-15T02:39:55;5.95;;;2.38;;
22287;SDS011;11312;51.464;6.968;2023-04-15T02:42:23;6.18;;;2.63;;
22287;SDS011;11312;51.464;6.968;2023-04-15T02:44:51;4.97;;;2.10;;
22287;SDS011;11312;51.464;6.968;2023-04-15T02:47:18;5.28;;;2.25;;
22287;SDS011;11312;51.464;6.968;2023-04-15T02:49:44;8.45;;;2.65;;
22287;SDS011;11312;51.464;6.968;2023-04-15T02:52:10;8.68;;;2.97;;
22287;SDS011;11312;51.464;6.968;2023-04-15T02:54:36;4.65;;;2.00;;
22287;SDS011;11312;51.464;6.968;2023-04-15T02:57:02;5.75;;;2.33;;
22287;SDS011;11312;51.464;6.968;2023-04-15T02:59:30;5.82;;;2.20;;
22287;SDS011;11312;51.464;6.968;2023-04-15T03:01:58;6.72;;;2.55;;
22287;SDS011;11312;51.464;6.968;2023-04-15T03:04:26;5.55;;;2.20;;
22287;SDS011;11312;51.464;6.968;2023-04-15T03:06:54;4.82;;;2.17;;
22287;SDS011;11312;51.464;6.968;2023-04-15T03:09:22;6.05;;;2.38;;
22287;SDS011;11312;51.464;6.968;2023-04-15T03:11:48;6.65;;;2.83;;
22287;SDS011;11312;51.464;6.968;2023-04-15T03:14:16;6.88;;;2.95;;
22287;SDS011;11312;51.464;6.968;2023-04-15T03:16:42;10.25;;;3.50;;
22287;SDS011;11312;51.464;6.968;2023-04-15T03:21:36;6.18;;;2.55;;
22287;SDS011;11312;51.464;6.968;2023-04-15T03:24:04;7.85;;;3.30;;
22287;SDS011;11312;51.464;6.968;2023-04-15T03:26:30;6.32;;;2.30;;
22287;SDS011;11312;51.464;6.968;2023-04-15T03:28:56;6.82;;;3.00;;
22287;SDS011;11312;51.464;6.968;2023-04-15T03:31:22;5.88;;;2.75;;
22287;SDS011;11312;51.464;6.968;2023-04-15T03:33:48;4.40;;;1.95;;
22287;SDS011;11312;51.464;6.968;2023-04-15T03:36:18;9.05;;;2.63;;
22287;SDS011;11312;51.464;6.968;2023-04-15T03:38:44;8.65;;;2.80;;
22287;SDS011;11312;51.464;6.968;2023-04-15T03:41:09;5.53;;;2.10;;
22287;SDS011;11312;51.464;6.968;2023-04-15T03:43:35;8.35;;;3.28;;
22287;SDS011;11312;51.464;6.968;2023-04-15T03:46:01;6.30;;;2.78;;
22287;SDS011;11312;51.464;6.968;2023-04-15T03:48:32;6.85;;;2.65;;
22287;SDS011;11312;51.464;6.968;2023-04-15T03:50:58;10.95;;;3.80;;
22287;SDS011;11312;51.464;6.968;2023-04-15T03:53:24;7.78;;;3.35;;
22287;SDS011;11312;51.464;6.968;2023-04-15T03:55:49;8.25;;;2.83;;
22287;SDS011;11312;51.464;6.968;2023-04-15T03:58:15;6.63;;;2.67;;
22287;SDS011;11312;51.464;6.968;2023-04-15T04:00:41;5.05;;;2.00;;
22287;SDS011;11312;51.464;6.968;2023-04-15T04:03:12;5.18;;;2.10;;
22287;SDS011;11312;51.464;6.968;2023-04-15T04:05:37;6.03;;;2.53;;
22287;SDS011;11312;51.464;6.968;2023-04-15T04:08:06;6.95;;;2.92;;
22287;SDS011;11312;51.464;6.968;2023-04-15T04:10:32;6.28;;;2.78;;
22287;SDS011;11312;51.464;6.968;2023-04-15T04:12:58;6.80;;;2.78;;
22287;SDS011;11312;51.464;6.968;2023-04-15T04:15:30;6.90;;;2.67;;
22287;SDS011;11312;51.464;6.968;2023-04-15T04:17:56;6.75;;;2.78;;
22287;SDS011;11312;51.464;6.968;2023-04-15T04:20:22;7.25;;;3.10;;
22287;SDS011;11312;51.464;6.968;2023-04-15T04:22:47;5.18;;;2.17;;
22287;SDS011;11312;51.464;6.968;2023-04-15T04:25:14;6.93;;;2.65;;
22287;SDS011;11312;51.464;6.968;2023-04-15T04:27:41;7.72;;;3.20;;
22287;SDS011;11312;51.464;6.968;2023-04-15T04:30:07;7.00;;;2.55;;
22287;SDS011;11312;51.464;6.968;2023-04-15T04:32:33;6.22;;;2.42;;
22287;SDS011;11312;51.464;6.968;2023-04-15T04:34:58;7.25;;;2.80;;
22287;SDS011;11312;51.464;6.968;2023-04-15T04:37:24;8.27;;;3.50;;
22287;SDS011;11312;51.464;6.968;2023-04-15T04:39:50;5.88;;;2.45;;
22287;SDS011;11312;51.464;6.968;2023-04-15T04:42:16;5.53;;;2.22;;
22287;SDS011;11312;51.464;6.968;2023-04-15T04:44:46;5.75;;;2.47;;
22287;SDS011;11312;51.464;6.968;2023-04-15T04:47:12;6.63;;;2.58;;
22287;SDS011;11312;51.464;6.968;2023-04-15T04:49:39;7.10;;;2.80;;
22287;SDS011;11312;51.464;6.968;2023-04-15T04:52:05;5.90;;;2.25;;
22287;SDS011;11312;51.464;6.968;2023-04-15T04:54:31;7.22;;;2.65;;
22287;SDS011;11312;51.464;6.968;2023-04-15T04:56:57;7.32;;;2.85;;
22287;SDS011;11312;51.464;6.968;2023-04-15T04:59:23;6.60;;;2.63;;
22287;SDS011;11312;51.464;6.968;2023-04-15T05:01:49;6.15;;;2.38;;
22287;SDS011;11312;51.464;6.968;2023-04-15T05:04:16;7.07;;;2.58;;
22287;SDS011;11312;51.464;6.968;2023-04-15T05:06:41;5.65;;;2.20;;
22287;SDS011;11312;51.464;6.968;2023-04-15T05:09:08;5.50;;;2.20;;
22287;SDS011;11312;51.464;6.968;2023-04-15T05:11:34;12.50;;;3.50;;
22287;SDS011;11312;51.464;6.968;2023-04-15T05:13:59;7.05;;;2.70;;
22287;SDS011;11312;51.464;6.968;2023-04-15T05:16:26;7.97;;;2.65;;
22287;SDS011;11312;51.464;6.968;2023-04-15T05:18:51;7.50;;;2.85;;
22287;SDS011;11312;51.464;6.968;2023-04-15T05:21:18;5.72;;;2.28;;
22287;SDS011;11312;51.464;6.968;2023-04-15T05:23:44;5.82;;;2.35;;
22287;SDS011;11312;51.464;6.968;2023-04-15T05:26:12;7.45;;;2.55;;
22287;SDS011;11312;51.464;6.968;2023-04-15T05:28:38;5.38;;;2.17;;
22287;SDS011;11312;51.464;6.968;2023-04-15T05:31:03;5.47;;;2.22;;
22287;SDS011;11312;51.464;6.968;2023-04-15T05:33:30;4.05;;;1.85;;
22287;SDS011;11312;51.464;6.968;2023-04-15T05:35:55;5.80;;;2.40;;
22287;SDS011;11312;51.464;6.968;2023-04-15T05:38:21;8.52;;;3.33;;
22287;SDS011;11312;51.464;6.968;2023-04-15T05:40:47;6.82;;;2.58;;
22287;SDS011;11312;51.464;6.968;2023-04-15T05:43:14;7.45;;;2.83;;
22287;SDS011;11312;51.464;6.968;2023-04-15T05:45:42;6.22;;;2.83;;
22287;SDS011;11312;51.464;6.968;2023-04-15T05:48:07;4.00;;;1.83;;
22287;SDS011;11312;51.464;6.968;2023-04-15T05:53:01;6.07;;;2.55;;
22287;SDS011;11312;51.464;6.968;2023-04-15T05:55:27;7.03;;;2.97;;
22287;SDS011;11312;51.464;6.968;2023-04-15T05:57:53;6.63;;;2.72;;
22287;SDS011;11312;51.464;6.968;2023-04-15T06:00:19;4.38;;;2.00;;
22287;SDS011;11312;51.464;6.968;2023-04-15T06:02:45;10.05;;;3.25;;
22287;SDS011;11312;51.464;6.968;2023-04-15T06:05:11;6.97;;;3.05;;
22287;SDS011;11312;51.464;6.968;2023-04-15T06:12:39;7.85;;;2.78;;
22287;SDS011;11312;51.464;6.968;2023-04-15T06:15:05;6.25;;;2.42;;
22287;SDS011;11312;51.464;6.968;2023-04-15T06:17:37;8.27;;;2.78;;
22287;SDS011;11312;51.464;6.968;2023-04-15T06:20:02;5.38;;;2.22;;
22287;SDS011;11312;51.464;6.968;2023-04-15T06:22:29;5.53;;;2.40;;
22287;SDS011;11312;51.464;6.968;2023-04-15T06:24:55;6.60;;;2.67;;
22287;SDS011;11312;51.464;6.968;2023-04-15T06:27:21;5.45;;;2.20;;
22287;SDS011;11312;51.464;6.968;2023-04-15T06:29:47;6.53;;;2.50;;
22287;SDS011;11312;51.464;6.968;2023-04-15T06:32:12;5.40;;;2.25;;
22287;SDS011;11312;51.464;6.968;2023-04-15T06:34:38;6.15;;;2.45;;
22287;SDS011;11312;51.464;6.968;2023-04-15T06:37:04;7.40;;;3.13;;
22287;SDS011;11312;51.464;6.968;2023-04-15T06:39:29;6.82;;;2.55;;
22287;SDS011;11312;51.464;6.968;2023-04-15T06:41:56;6.70;;;2.60;;
22287;SDS011;11312;51.464;6.968;2023-04-15T06:44:22;5.35;;;2.33;;
22287;SDS011;11312;51.464;6.968;2023-04-15T06:46:47;4.55;;;2.13;;
22287;SDS011;11312;51.464;6.968;2023-04-15T06:49:13;6.25;;;2.40;;
22287;SDS011;11312;51.464;6.968;2023-04-15T06:51:46;5.20;;;2.17;;
22287;SDS011;11312;51.464;6.968;2023-04-15T06:54:12;6.30;;;2.75;;
22287;SDS011;11312;51.464;6.968;2023-04-15T06:56:37;6.20;;;2.58;;
22287;SDS011;11312;51.464;6.968;2023-04-15T06:59:06;4.65;;;2.03;;
22287;SDS011;11312;51.464;6.968;2023-04-15T07:01:39;6.30;;;2.17;;
22287;SDS011;11312;51.464;6.968;2023-04-15T07:04:06;6.75;;;2.38;;
22287;SDS011;11312;51.464;6.968;2023-04-15T07:06:33;4.40;;;1.85;;
22287;SDS011;11312;51.464;6.968;2023-04-15T07:09:00;6.18;;;2.50;;
22287;SDS011;11312;51.464;6.968;2023-04-15T07:11:27;17.75;;;2.65;;
22287;SDS011;11312;51.464;6.968;2023-04-15T07:13:53;5.40;;;2.00;;
22287;SDS011;11312;51.464;6.968;2023-04-15T07:16:24;3.78;;;1.83;;
22287;SDS011;11312;51.464;6.968;2023-04-15T07:18:50;3.28;;;1.55;;
22287;SDS011;11312;51.464;6.968;2023-04-15T07:21:16;4.50;;;2.22;;
22287;SDS011;11312;51.464;6.968;2023-04-15T07:23:42;4.00;;;1.90;;
22287;SDS011;11312;51.464;6.968;2023-04-15T07:26:08;7.57;;;3.17;;
22287;SDS011;11312;51.464;6.968;2023-04-15T07:31:07;7.35;;;2.78;;
22287;SDS011;11312;51.464;6.968;2023-04-15T07:33:33;8.32;;;2.45;;
22287;SDS011;11312;51.464;6.968;2023-04-15T07:36:05;4.75;;;2.08;;
22287;SDS011;11312;51.464;6.968;2023-04-15T07:38:30;5.45;;;2.20;;
22287;SDS011;11312;51.464;6.968;2023-04-15T07:40:56;2.83;;;1.63;;
22287;SDS011;11312;51.464;6.968;2023-04-15T07:43:23;4.43;;;2.05;;
22287;SDS011;11312;51.464;6.968;2023-04-15T07:45:49;7.85;;;2.35;;
22287;SDS011;11312;51.464;6.968;2023-04-15T07:48:16;5.82;;;2.67;;
22287;SDS011;11312;51.464;6.968;2023-04-15T07:50:42;4.10;;;1.85;;
22287;SDS011;11312;51.464;6.968;2023-04-15T07:53:08;4.75;;;2.05;;
22287;SDS011;11312;51.464;6.968;2023-04-15T07:55:34;2.10;;;1.40;;
22287;SDS011;11312;51.464;6.968;2023-04-15T07:58:00;5.40;;;2.35;;
22287;SDS011;11312;51.464;6.968;2023-04-15T08:00:26;2.63;;;1.52;;
22287;SDS011;11312;51.464;6.968;2023-04-15T08:02:56;4.85;;;2.10;;
22287;SDS011;11312;51.464;6.968;2023-04-15T08:05:23;3.90;;;1.80;;
22287;SDS011;11312;51.464;6.968;2023-04-15T08:07:53;3.95;;;1.73;;
22287;SDS011;11312;51.464;6.968;2023-04-15T08:10:19;3.58;;;1.70;;
22287;SDS011;11312;51.464;6.968;2023-04-15T08:12:45;2.67;;;1.70;;
22287;SDS011;11312;51.464;6.968;2023-04-15T08:15:15;4.38;;;1.92;;
22287;SDS011;11312;51.464;6.968;2023-04-15T08:17:44;3.05;;;1.58;;
22287;SDS011;11312;51.464;6.968;2023-04-15T08:20:18;3.80;;;1.65;;
22287;SDS011;11312;51.464;6.968;2023-04-15T08:22:44;2.90;;;1.50;;
22287;SDS011;11312;51.464;6.968;2023-04-15T08:25:11;4.10;;;2.13;;
22287;SDS011;11312;51.464;6.968;2023-04-15T08:27:37;2.10;;;1.33;;
22287;SDS011;11312;51.464;6.968;2023-04-15T08:30:03;4.47;;;1.70;;
22287;SDS011;11312;51.464;6.968;2023-04-15T08:32:30;2.53;;;1.48;;
22287;SDS011;11312;51.464;6.968;2023-04-15T08:34:55;2.17;;;1.38;;
22287;SDS011;11312;51.464;6.968;2023-04-15T08:37:25;3.05;;;1.73;;
22287;SDS011;11312;51.464;6.968;2023-04-15T08:39:51;3.67;;;1.70;;
22287;SDS011;11312;51.464;6.968;2023-04-15T08:42:18;1.95;;;1.35;;
22287;SDS011;11312;51.464;6.968;2023-04-15T08:44:48;2.53;;;1.40;;
22287;SDS011;11312;51.464;6.968;2023-04-15T08:47:14;2.25;;;1.40;;
22287;SDS011;11312;51.464;6.968;2023-04-15T08:49:44;2.58;;;1.45;;
22287;SDS011;11312;51.464;6.968;2023-04-15T08:52:24;4.50;;;1.83;;
22287;SDS011;11312;51.464;6.968;2023-04-15T08:54:51;3.70;;;1.63;;
22287;SDS011;11312;51.464;6.968;2023-04-15T09:14:46;2.73;;;1.50;;
22287;SDS011;11312;51.464;6.968;2023-04-15T09:17:41;2.88;;;1.48;;
22287;SDS011;11312;51.464;6.968;2023-04-15T09:23:10;3.83;;;1.50;;
22287;SDS011;11312;51.464;6.968;2023-04-15T09:25:46;2.50;;;1.50;;
22287;SDS011;11312;51.464;6.968;2023-04-15T09:28:40;4.03;;;1.50;;
22287;SDS011;11312;51.464;6.968;2023-04-15T09:31:08;3.05;;;1.45;;
22287;SDS011;11312;51.464;6.968;2023-04-15T09:33:35;2.92;;;1.48;;
22287;SDS011;11312;51.464;6.968;2023-04-15T09:36:17;1.70;;;1.17;;
22287;SDS011;11312;51.464;6.968;2023-04-15T09:38:59;2.13;;;1.40;;
22287;SDS011;11312;51.464;6.968;2023-04-15T09:41:26;2.55;;;1.40;;
22287;SDS011;11312;51.464;6.968;2023-04-15T09:43:54;2.70;;;1.37;;
22287;SDS011;11312;51.464;6.968;2023-04-15T09:46:44;2.75;;;1.52;;
22287;SDS011;11312;51.464;6.968;2023-04-15T09:49:24;4.35;;;1.70;;
22287;SDS011;11312;51.464;6.968;2023-04-15T09:52:01;2.53;;;1.30;;
22287;SDS011;11312;51.464;6.968;2023-04-15T09:54:38;7.65;;;1.60;;
22287;SDS011;11312;51.464;6.968;2023-04-15T09:59:35;1.95;;;1.25;;
22287;SDS011;11312;51.464;6.968;2023-04-15T10:02:06;2.03;;;1.25;;
22287;SDS011;11312;51.464;6.968;2023-04-15T10:04:34;2.10;;;1.30;;
22287;SDS011;11312;51.464;6.968;2023-04-15T10:09:59;2.70;;;1.48;;
22287;SDS011;11312;51.464;6.968;2023-04-15T10:12:33;3.53;;;1.70;;
22287;SDS011;11312;51.464;6.968;2023-04-15T10:15:04;2.45;;;1.40;;
22287;SDS011;11312;51.464;6.968;2023-04-15T10:17:35;2.58;;;1.40;;
22287;SDS011;11312;51.464;6.968;2023-04-15T10:20:05;2.55;;;1.48;;
22287;SDS011;11312;51.464;6.968;2023-04-15T10:22:33;4.00;;;1.60;;
22287;SDS011;11312;51.464;6.968;2023-04-15T10:25:01;3.92;;;1.70;;
22287;SDS011;11312;51.464;6.968;2023-04-15T10:27:30;2.08;;;1.35;;
22287;SDS011;11312;51.464;6.968;2023-04-15T10:29:58;2.88;;;1.50;;
22287;SDS011;11312;51.464;6.968;2023-04-15T10:32:29;1.30;;;1.20;;
22287;SDS011;11312;51.464;6.968;2023-04-15T10:34:58;3.67;;;1.88;;
22287;SDS011;11312;51.464;6.968;2023-04-15T10:37:37;2.03;;;1.50;;
22287;SDS011;11312;51.464;6.968;2023-04-15T10:43:04;2.45;;;1.45;;
22287;SDS011;11312;51.464;6.968;2023-04-15T10:45:34;3.60;;;1.70;;
22287;SDS011;11312;51.464;6.968;2023-04-15T10:48:01;2.83;;;1.58;;
22287;SDS011;11312;51.464;6.968;2023-04-15T10:50:33;4.15;;;1.70;;
22287;SDS011;11312;51.464;6.968;2023-04-15T10:53:02;3.28;;;1.70;;
22287;SDS011;11312;51.464;6.968;2023-04-15T10:55:30;2.45;;;1.60;;
22287;SDS011;11312;51.464;6.968;2023-04-15T10:58:00;4.30;;;1.60;;
22287;SDS011;11312;51.464;6.968;2023-04-15T11:00:30;4.75;;;1.95;;
22287;SDS011;11312;51.464;6.968;2023-04-15T11:05:47;3.35;;;1.67;;
22287;SDS011;11312;51.464;6.968;2023-04-15T11:08:13;1.35;;;1.25;;
22287;SDS011;11312;51.464;6.968;2023-04-15T11:15:38;1.67;;;1.30;;
22287;SDS011;11312;51.464;6.968;2023-04-15T11:18:11;6.10;;;2.15;;
22287;SDS011;11312;51.464;6.968;2023-04-15T11:20:48;3.00;;;1.55;;
22287;SDS011;11312;51.464;6.968;2023-04-15T11:23:19;2.38;;;1.40;;
22287;SDS011;11312;51.464;6.968;2023-04-15T11:26:05;3.58;;;1.70;;
22287;SDS011;11312;51.464;6.968;2023-04-15T11:28:39;3.28;;;1.63;;
22287;SDS011;11312;51.464;6.968;2023-04-15T11:31:07;3.05;;;1.55;;
22287;SDS011;11312;51.464;6.968;2023-04-15T11:34:01;2.97;;;1.50;;
22287;SDS011;11312;51.464;6.968;2023-04-15T11:36:27;1.40;;;1.23;;
22287;SDS011;11312;51.464;6.968;2023-04-15T11:38:56;3.97;;;2.20;;
22287;SDS011;11312;51.464;6.968;2023-04-15T11:41:23;5.85;;;2.38;;
22287;SDS011;11312;51.464;6.968;2023-04-15T11:43:49;2.05;;;1.40;;
22287;SDS011;11312;51.464;6.968;2023-04-15T11:46:16;2.08;;;1.45;;
22287;SDS011;11312;51.464;6.968;2023-04-15T11:48:43;2.25;;;1.40;;
22287;SDS011;11312;51.464;6.968;2023-04-15T11:51:13;2.88;;;1.55;;
22287;SDS011;11312;51.464;6.968;2023-04-15T11:56:21;2.72;;;1.55;;
22287;SDS011;11312;51.464;6.968;2023-04-15T11:58:50;2.75;;;1.50;;
22287;SDS011;11312;51.464;6.968;2023-04-15T12:01:17;2.20;;;1.40;;
22287;SDS011;11312;51.464;6.968;2023-04-15T12:03:44;4.97;;;2.35;;
22287;SDS011;11312;51.464;6.968;2023-04-15T12:06:21;2.95;;;1.45;;
22287;SDS011;11312;51.464;6.968;2023-04-15T12:11:32;3.03;;;2.03;;
22287;SDS011;11312;51.464;6.968;2023-04-15T12:17:02;2.63;;;1.50;;
22287;SDS011;11312;51.464;6.968;2023-04-15T12:19:36;4.20;;;1.85;;
22287;SDS011;11312;51.464;6.968;2023-04-15T12:22:05;2.20;;;1.40;;
22287;SDS011;11312;51.464;6.968;2023-04-15T12:24:39;2.70;;;1.50;;
22287;SDS011;11312;51.464;6.968;2023-04-15T12:27:11;2.05;;;1.38;;
22287;SDS011;11312;51.464;6.968;2023-04-15T12:35:01;19.35;;;3.20;;
22287;SDS011;11312;51.464;6.968;2023-04-15T12:37:27;3.92;;;1.73;;
22287;SDS011;11312;51.464;6.968;2023-04-15T12:39:56;3.35;;;1.60;;
22287;SDS011;11312;51.464;6.968;2023-04-15T12:42:21;8.52;;;1.98;;
22287;SDS011;11312;51.464;6.968;2023-04-15T12:44:47;2.03;;;1.30;;
22287;SDS011;11312;51.464;6.968;2023-04-15T12:47:30;3.53;;;1.63;;
22287;SDS011;11312;51.464;6.968;2023-04-15T12:49:58;2.70;;;1.50;;
22287;SDS011;11312;51.464;6.968;2023-04-15T12:52:29;3.08;;;1.60;;
22287;SDS011;11312;51.464;6.968;2023-04-15T12:54:55;2.65;;;1.50;;
22287;SDS011;11312;51.464;6.968;2023-04-15T12:57:21;3.53;;;1.80;;
22287;SDS011;11312;51.464;6.968;2023-04-15T12:59:46;3.10;;;1.83;;
22287;SDS011;11312;51.464;6.968;2023-04-15T13:02:12;3.70;;;1.73;;
22287;SDS011;11312;51.464;6.968;2023-04-15T13:04:39;3.05;;;1.60;;
22287;SDS011;11312;51.464;6.968;2023-04-15T13:07:04;2.55;;;1.50;;
22287;SDS011;11312;51.464;6.968;2023-04-15T13:09:30;2.92;;;1.60;;
22287;SDS011;11312;51.464;6.968;2023-04-15T13:11:59;4.40;;;1.95;;
22287;SDS011;11312;51.464;6.968;2023-04-15T13:14:28;3.58;;;1.63;;
22287;SDS011;11312;51.464;6.968;2023-04-15T13:16:58;4.35;;;2.10;;
22287;SDS011;11312;51.464;6.968;2023-04-15T13:19:24;3.90;;;1.95;;
22287;SDS011;11312;51.464;6.968;2023-04-15T13:21:50;4.95;;;2.15;;
22287;SDS011;11312;51.464;6.968;2023-04-15T13:24:16;3.17;;;1.83;;
22287;SDS011;11312;51.464;6.968;2023-04-15T13:26:41;3.13;;;1.60;;
22287;SDS011;11312;51.464;6.968;2023-04-15T13:29:08;2.85;;;1.40;;
22287;SDS011;11312;51.464;6.968;2023-04-15T13:31:42;2.15;;;1.30;;
22287;SDS011;11312;51.464;6.968;2023-04-15T13:34:12;3.83;;;1.80;;
22287;SDS011;11312;51.464;6.968;2023-04-15T13:36:38;2.50;;;1.40;;
22287;SDS011;11312;51.464;6.968;2023-04-15T13:39:04;3.00;;;1.55;;
22287;SDS011;11312;51.464;6.968;2023-04-15T13:41:32;2.90;;;1.73;;
22287;SDS011;11312;51.464;6.968;2023-04-15T13:43:57;2.40;;;1.40;;
22287;SDS011;11312;51.464;6.968;2023-04-15T13:46:30;2.75;;;1.55;;
22287;SDS011;11312;51.464;6.968;2023-04-15T13:48:59;4.38;;;2.45;;
22287;SDS011;11312;51.464;6.968;2023-04-15T13:51:25;3.30;;;1.75;;
22287;SDS011;11312;51.464;6.968;2023-04-15T13:54:00;3.65;;;1.83;;
22287;SDS011;11312;51.464;6.968;2023-04-15T13:56:28;2.85;;;1.75;;
22287;SDS011;11312;51.464;6.968;2023-04-15T13:58:54;2.70;;;1.50;;
22287;SDS011;11312;51.464;6.968;2023-04-15T14:01:25;3.63;;;1.95;;
22287;SDS011;11312;51.464;6.968;2023-04-15T14:03:54;2.67;;;1.55;;
22287;SDS011;11312;51.464;6.968;2023-04-15T14:06:23;3.97;;;1.67;;
22287;SDS011;11312;51.464;6.968;2023-04-15T14:08:52;3.70;;;1.83;;
22287;SDS011;11312;51.464;6.968;2023-04-15T14:11:18;2.63;;;1.40;;
22287;SDS011;11312;51.464;6.968;2023-04-15T14:13:51;6.03;;;2.80;;
22287;SDS011;11312;51.464;6.968;2023-04-15T14:16:42;2.78;;;1.50;;
22287;SDS011;11312;51.464;6.968;2023-04-15T14:19:09;2.75;;;1.60;;
22287;SDS011;11312;51.464;6.968;2023-04-15T14:21:37;2.78;;;1.52;;
22287;SDS011;11312;51.464;6.968;2023-04-15T14:24:06;3.03;;;1.52;;
22287;SDS011;11312;51.464;6.968;2023-04-15T14:26:32;3.72;;;1.88;;
22287;SDS011;11312;51.464;6.968;2023-04-15T14:29:15;3.15;;;1.50;;
22287;SDS011;11312;51.464;6.968;2023-04-15T14:31:41;2.88;;;1.58;;
22287;SDS011;11312;51.464;6.968;2023-04-15T14:34:16;2.25;;;1.45;;
22287;SDS011;11312;51.464;6.968;2023-04-15T14:36:42;3.15;;;1.58;;
22287;SDS011;11312;51.464;6.968;2023-04-15T14:39:08;3.47;;;1.73;;
22287;SDS011;11312;51.464;6.968;2023-04-15T14:41:34;1.88;;;1.30;;
22287;SDS011;11312;51.464;6.968;2023-04-15T14:44:00;3.28;;;1.75;;
22287;SDS011;11312;51.464;6.968;2023-04-15T14:46:31;2.85;;;1.50;;
22287;SDS011;11312;51.464;6.968;2023-04-15T14:49:11;3.88;;;1.65;;
22287;SDS011;11312;51.464;6.968;2023-04-15T14:51:36;2.88;;;1.65;;
22287;SDS011;11312;51.464;6.968;2023-04-15T14:54:10;3.55;;;1.77;;
22287;SDS011;11312;51.464;6.968;2023-04-15T14:56:39;2.60;;;1.42;;
22287;SDS011;11312;51.464;6.968;2023-04-15T14:59:08;3.00;;;1.58;;
22287;SDS011;11312;51.464;6.968;2023-04-15T15:01:41;3.05;;;1.60;;
22287;SDS011;11312;51.464;6.968;2023-04-15T15:04:09;2.85;;;1.50;;
22287;SDS011;11312;51.464;6.968;2023-04-15T15:06:42;3.53;;;1.60;;
22287;SDS011;11312;51.464;6.968;2023-04-15T15:09:25;5.05;;;1.90;;
22287;SDS011;11312;51.464;6.968;2023-04-15T15:12:08;4.30;;;1.90;;
22287;SDS011;11312;51.464;6.968;2023-04-15T15:14:41;4.60;;;1.90;;
22287;SDS011;11312;51.464;6.968;2023-04-15T15:17:10;2.35;;;1.40;;
22287;SDS011;11312;51.464;6.968;2023-04-15T15:19:35;3.15;;;1.55;;
22287;SDS011;11312;51.464;6.968;2023-04-15T15:24:51;2.28;;;1.40;;
22287;SDS011;11312;51.464;6.968;2023-04-15T15:27:17;2.33;;;1.42;;
22287;SDS011;11312;51.464;6.968;2023-04-15T15:29:43;4.22;;;2.05;;
22287;SDS011;11312;51.464;6.968;2023-04-15T15:34:52;2.25;;;1.40;;
22287;SDS011;11312;51.464;6.968;2023-04-15T15:37:23;2.40;;;1.40;;
22287;SDS011;11312;51.464;6.968;2023-04-15T15:43:01;2.20;;;1.40;;
22287;SDS011;11312;51.464;6.968;2023-04-15T15:45:27;3.85;;;2.10;;
22287;SDS011;11312;51.464;6.968;2023-04-15T15:47:53;2.53;;;1.40;;
22287;SDS011;11312;51.464;6.968;2023-04-15T15:50:20;6.38;;;2.22;;
22287;SDS011;11312;51.464;6.968;2023-04-15T15:52:46;1.85;;;1.33;;
22287;SDS011;11312;51.464;6.968;2023-04-15T15:55:12;3.35;;;1.60;;
22287;SDS011;11312;51.464;6.968;2023-04-15T15:57:40;2.47;;;1.42;;
22287;SDS011;11312;51.464;6.968;2023-04-15T16:00:11;3.70;;;1.85;;
22287;SDS011;11312;51.464;6.968;2023-04-15T16:02:38;2.35;;;1.40;;
22287;SDS011;11312;51.464;6.968;2023-04-15T16:05:04;3.53;;;1.75;;
22287;SDS011;11312;51.464;6.968;2023-04-15T16:07:43;3.92;;;1.75;;
22287;SDS011;11312;51.464;6.968;2023-04-15T16:10:09;2.53;;;1.50;;